createdAt,value
2018-08-22T00:00:03.902Z,1013.86
2018-08-22T00:01:03.900Z,1013.84
2018-08-22T00:02:03.903Z,1013.81
2018-08-22T00:03:03.896Z,1013.84
2018-08-22T00:04:03.893Z,1013.79
2018-08-22T00:05:03.890Z,1013.81
2018-08-22T00:06:03.891Z,1013.81
2018-08-22T00:07:03.896Z,1013.87
2018-08-22T00:08:03.905Z,1013.86
2018-08-22T00:09:04.014Z,1013.83
2018-08-22T00:10:03.892Z,1013.87
2018-08-22T00:11:03.892Z,1013.83
2018-08-22T00:12:03.889Z,1013.82
2018-08-22T00:13:03.890Z,1013.80
2018-08-22T00:14:03.890Z,1013.81
2018-08-22T00:15:03.916Z,1013.80
2018-08-22T00:16:03.884Z,1013.79
2018-08-22T00:17:03.882Z,1013.81
2018-08-22T00:18:03.887Z,1013.82
2018-08-22T00:19:03.886Z,1013.82
2018-08-22T00:20:03.885Z,1013.84
2018-08-22T00:21:03.884Z,1013.84
2018-08-22T00:22:03.884Z,1013.79
2018-08-22T00:23:03.878Z,1013.82
2018-08-22T00:24:03.877Z,1013.83
2018-08-22T00:25:03.882Z,1013.77
2018-08-22T00:26:03.881Z,1013.80
2018-08-22T00:27:03.877Z,1013.78
2018-08-22T00:28:03.876Z,1013.78
2018-08-22T00:29:03.895Z,1013.78
2018-08-22T00:30:03.875Z,1013.77
2018-08-22T00:31:03.878Z,1013.77
2018-08-22T00:32:03.878Z,1013.74
2018-08-22T00:33:03.876Z,1013.77
2018-08-22T00:34:03.876Z,1013.73
2018-08-22T00:35:03.871Z,1013.76
2018-08-22T00:36:03.872Z,1013.74
2018-08-22T00:37:03.871Z,1013.73
2018-08-22T00:38:03.870Z,1013.72
2018-08-22T00:39:03.873Z,1013.70
2018-08-22T00:40:03.871Z,1013.75
2018-08-22T00:41:03.866Z,1013.73
2018-08-22T00:42:03.866Z,1013.73
2018-08-22T00:43:03.872Z,1013.71
2018-08-22T00:44:03.871Z,1013.72
2018-08-22T00:45:03.874Z,1013.73
2018-08-22T00:46:03.870Z,1013.80
2018-08-22T00:47:03.863Z,1013.71
2018-08-22T00:48:03.862Z,1013.71
2018-08-22T00:49:03.863Z,1013.67
2018-08-22T00:50:03.860Z,1013.70
2018-08-22T00:51:03.865Z,1013.72
2018-08-22T00:52:03.863Z,1013.70
2018-08-22T00:53:03.866Z,1013.69
2018-08-22T00:54:03.862Z,1013.69
2018-08-22T00:55:03.857Z,1013.70
2018-08-22T00:56:03.872Z,1013.65
2018-08-22T00:57:03.861Z,1013.68
2018-08-22T00:58:03.861Z,1013.62
2018-08-22T00:59:03.858Z,1013.64
2018-08-22T01:00:03.855Z,1013.63
2018-08-22T01:01:03.853Z,1013.62
2018-08-22T01:02:03.853Z,1013.62
2018-08-22T01:03:03.860Z,1013.64
2018-08-22T01:04:03.854Z,1013.59
2018-08-22T01:05:03.858Z,1013.62
2018-08-22T01:06:03.854Z,1013.60
2018-08-22T01:07:03.850Z,1013.61
2018-08-22T01:08:03.849Z,1013.54
2018-08-22T01:09:03.848Z,1013.61
2018-08-22T01:10:03.846Z,1013.60
2018-08-22T01:11:03.850Z,1013.58
2018-08-22T01:12:03.850Z,1013.59
2018-08-22T01:13:03.843Z,1013.54
2018-08-22T01:14:03.843Z,1013.54
2018-08-22T01:15:03.846Z,1013.51
2018-08-22T01:16:03.844Z,1013.57
2018-08-22T01:17:03.845Z,1013.45
2018-08-22T01:18:03.845Z,1013.47
2018-08-22T01:19:03.840Z,1013.49
2018-08-22T01:20:03.840Z,1013.49
2018-08-22T01:21:03.838Z,1013.48
2018-08-22T01:22:03.839Z,1013.45
2018-08-22T01:23:03.841Z,1013.47
2018-08-22T01:24:03.872Z,1013.47
2018-08-22T01:25:03.889Z,1013.45
2018-08-22T01:26:03.837Z,1013.46
2018-08-22T01:27:03.835Z,1013.47
2018-08-22T01:28:03.833Z,1013.46
2018-08-22T01:29:03.837Z,1013.43
2018-08-22T01:30:03.839Z,1013.44
2018-08-22T01:31:03.833Z,1013.44
2018-08-22T01:32:03.832Z,1013.42
2018-08-22T01:33:03.830Z,1013.40
2018-08-22T01:34:03.831Z,1013.41
2018-08-22T01:35:03.836Z,1013.42
2018-08-22T01:36:03.832Z,1013.41
2018-08-22T01:37:03.834Z,1013.40
2018-08-22T01:38:03.832Z,1013.38
2018-08-22T01:39:03.827Z,1013.33
2018-08-22T01:40:03.826Z,1013.39
2018-08-22T01:41:03.824Z,1013.39
2018-08-22T01:42:03.825Z,1013.35
2018-08-22T01:43:03.831Z,1013.35
2018-08-22T01:44:03.829Z,1013.29
2018-08-22T01:45:03.822Z,1013.34
2018-08-22T01:46:03.821Z,1013.39
2018-08-22T01:47:03.826Z,1013.37
2018-08-22T01:48:03.824Z,1013.38
2018-08-22T01:49:03.824Z,1013.38
2018-08-22T01:50:03.824Z,1013.37
2018-08-22T01:51:03.817Z,1013.36
2018-08-22T01:52:03.817Z,1013.36
2018-08-22T01:53:03.817Z,1013.31
2018-08-22T01:54:03.820Z,1013.32
2018-08-22T01:55:03.820Z,1013.32
2018-08-22T01:56:03.819Z,1013.36
2018-08-22T01:57:03.819Z,1013.32
2018-08-22T01:58:03.817Z,1013.31
2018-08-22T01:59:03.812Z,1013.27
2018-08-22T02:00:03.812Z,1013.31
2018-08-22T02:01:03.814Z,1013.33
2018-08-22T02:02:03.816Z,1013.32
2018-08-22T02:03:03.810Z,1013.31
2018-08-22T02:04:03.808Z,1013.33
2018-08-22T02:05:03.811Z,1013.27
2018-08-22T02:06:03.807Z,1013.28
2018-08-22T02:07:03.811Z,1013.21
2018-08-22T02:08:03.811Z,1013.18
2018-08-22T02:09:03.808Z,1013.21
2018-08-22T02:10:03.809Z,1013.21
2018-08-22T02:11:03.802Z,1013.22
2018-08-22T02:12:03.802Z,1013.21
2018-08-22T02:13:03.801Z,1013.22
2018-08-22T02:14:03.800Z,1013.22
2018-08-22T02:15:03.808Z,1013.21
2018-08-22T02:16:03.802Z,1013.22
2018-08-22T02:17:03.797Z,1013.22
2018-08-22T02:18:03.801Z,1013.19
2018-08-22T02:19:03.802Z,1013.22
2018-08-22T02:20:03.798Z,1013.19
2018-08-22T02:21:03.799Z,1013.17
2018-08-22T02:22:03.830Z,1013.15
2018-08-22T02:23:03.794Z,1013.20
2018-08-22T02:24:03.790Z,1013.19
2018-08-22T02:25:03.837Z,1013.16
2018-08-22T02:26:03.789Z,1013.17
2018-08-22T02:27:03.793Z,1013.16
2018-08-22T02:28:03.790Z,1013.15
2018-08-22T02:29:03.791Z,1013.15
2018-08-22T02:30:03.792Z,1013.16
2018-08-22T02:31:03.786Z,1013.15
2018-08-22T02:32:03.785Z,1013.13
2018-08-22T02:33:03.790Z,1013.12
2018-08-22T02:34:03.788Z,1013.09
2018-08-22T02:35:03.782Z,1013.14
2018-08-22T02:36:03.782Z,1013.13
2018-08-22T02:37:03.777Z,1013.12
2018-08-22T02:38:03.777Z,1013.10
2018-08-22T02:39:03.780Z,1013.06
2018-08-22T02:40:03.788Z,1013.11
2018-08-22T02:41:03.780Z,1013.06
2018-08-22T02:42:03.783Z,1013.08
2018-08-22T02:43:03.771Z,1013.05
2018-08-22T02:44:03.771Z,1013.03
2018-08-22T02:45:03.771Z,1013.09
2018-08-22T02:46:03.769Z,1013.08
2018-08-22T02:47:03.777Z,1013.08
2018-08-22T02:48:03.770Z,1013.07
2018-08-22T02:49:03.764Z,1013.10
2018-08-22T02:50:03.764Z,1013.03
2018-08-22T02:51:03.768Z,1013.08
2018-08-22T02:52:03.767Z,1013.06
2018-08-22T02:53:03.764Z,1013.06
2018-08-22T02:54:03.762Z,1013.07
2018-08-22T02:55:03.757Z,1013.04
2018-08-22T02:56:03.756Z,1013.08
2018-08-22T02:57:03.755Z,1013.08
2018-08-22T02:58:03.755Z,1013.06
2018-08-22T02:59:03.758Z,1013.03
2018-08-22T03:00:03.754Z,1013.04
2018-08-22T03:01:03.755Z,1013.06
2018-08-22T03:02:03.754Z,1013.00
2018-08-22T03:03:03.748Z,1012.99
2018-08-22T03:04:03.745Z,1013.02
2018-08-22T03:05:03.752Z,1013.00
2018-08-22T03:06:03.748Z,1013.04
2018-08-22T03:07:03.742Z,1013.00
2018-08-22T03:08:03.742Z,1013.04
2018-08-22T03:09:03.743Z,1013.07
2018-08-22T03:10:03.738Z,1013.03
2018-08-22T03:11:03.741Z,1013.03
2018-08-22T03:12:03.738Z,1013.05
2018-08-22T03:13:03.739Z,1013.07
2018-08-22T03:14:03.745Z,1013.06
2018-08-22T03:15:03.733Z,1013.01
2018-08-22T03:16:03.730Z,1013.00
2018-08-22T03:17:03.734Z,1012.96
2018-08-22T03:18:03.729Z,1012.99
2018-08-22T03:19:03.730Z,1012.96
2018-08-22T03:20:03.729Z,1012.99
2018-08-22T03:21:03.723Z,1013.00
2018-08-22T03:22:03.724Z,1013.03
2018-08-22T03:23:03.724Z,1013.05
2018-08-22T03:24:03.724Z,1013.02
2018-08-22T03:25:03.725Z,1013.05
2018-08-22T03:26:03.763Z,1013.02
2018-08-22T03:27:03.715Z,1013.05
2018-08-22T03:28:03.712Z,1013.06
2018-08-22T03:29:03.714Z,1013.04
2018-08-22T03:30:03.709Z,1013.05
2018-08-22T03:31:03.714Z,1013.02
2018-08-22T03:32:03.712Z,1012.99
2018-08-22T03:33:03.710Z,1012.96
2018-08-22T03:34:03.707Z,1012.97
2018-08-22T03:35:03.702Z,1012.94
2018-08-22T03:36:03.700Z,1012.94
2018-08-22T03:37:03.702Z,1012.95
2018-08-22T03:38:03.703Z,1012.91
2018-08-22T03:39:03.696Z,1012.90
2018-08-22T03:40:03.693Z,1012.94
2018-08-22T03:41:03.694Z,1012.94
2018-08-22T03:42:03.691Z,1012.93
2018-08-22T03:43:03.694Z,1012.88
2018-08-22T03:44:03.692Z,1012.89
2018-08-22T03:45:03.692Z,1012.90
2018-08-22T03:46:03.689Z,1012.90
2018-08-22T03:47:03.682Z,1012.93
2018-08-22T03:48:03.680Z,1012.92
2018-08-22T03:49:03.678Z,1012.94
2018-08-22T03:50:03.679Z,1012.94
2018-08-22T03:51:03.679Z,1012.94
2018-08-22T03:52:03.679Z,1012.95
2018-08-22T03:53:03.675Z,1012.94
2018-08-22T03:54:03.670Z,1012.95
2018-08-22T03:55:03.674Z,1012.94
2018-08-22T03:56:03.672Z,1012.99
2018-08-22T03:57:03.670Z,1012.99
2018-08-22T03:58:03.669Z,1012.95
2018-08-22T03:59:03.666Z,1012.98
2018-08-22T04:00:03.664Z,1012.94
2018-08-22T04:01:03.658Z,1012.94
2018-08-22T04:02:03.657Z,1012.96
2018-08-22T04:03:03.660Z,1012.94
2018-08-22T04:04:03.658Z,1012.97
2018-08-22T04:05:03.655Z,1012.94
2018-08-22T04:06:03.653Z,1012.94
2018-08-22T04:07:03.648Z,1012.98
2018-08-22T04:08:03.649Z,1012.96
2018-08-22T04:09:03.652Z,1012.99
2018-08-22T04:10:03.647Z,1012.99
2018-08-22T04:11:03.641Z,1012.98
2018-08-22T04:12:03.638Z,1013.02
2018-08-22T04:13:03.636Z,1013.03
2018-08-22T04:14:03.637Z,1013.00
2018-08-22T04:15:03.639Z,1013.02
2018-08-22T04:16:03.636Z,1012.98
2018-08-22T04:17:03.634Z,1012.99
2018-08-22T04:18:03.633Z,1013.00
2018-08-22T04:19:03.626Z,1012.97
2018-08-22T04:20:03.625Z,1012.99
2018-08-22T04:21:03.623Z,1013.00
2018-08-22T04:22:03.620Z,1012.96
2018-08-22T04:23:03.624Z,1012.96
2018-08-22T04:24:03.621Z,1012.91
2018-08-22T04:25:03.616Z,1012.94
2018-08-22T04:26:03.615Z,1012.88
2018-08-22T04:27:03.617Z,1012.96
2018-08-22T04:28:03.615Z,1012.94
2018-08-22T04:29:03.612Z,1012.91
2018-08-22T04:30:03.612Z,1012.96
2018-08-22T04:31:03.649Z,1012.95
2018-08-22T04:32:03.602Z,1012.96
2018-08-22T04:33:03.600Z,1012.93
2018-08-22T04:34:03.600Z,1012.93
2018-08-22T04:35:03.603Z,1012.92
2018-08-22T04:36:03.599Z,1012.93
2018-08-22T04:37:03.599Z,1012.96
2018-08-22T04:38:03.597Z,1012.93
2018-08-22T04:39:03.590Z,1013.00
2018-08-22T04:40:03.590Z,1013.00
2018-08-22T04:41:03.591Z,1012.97
2018-08-22T04:42:03.590Z,1013.01
2018-08-22T04:43:03.583Z,1013.00
2018-08-22T04:44:03.583Z,1013.01
2018-08-22T04:45:03.578Z,1012.94
2018-08-22T04:46:03.576Z,1012.97
2018-08-22T04:47:03.579Z,1012.96
2018-08-22T04:48:03.584Z,1012.96
2018-08-22T04:49:03.575Z,1012.95
2018-08-22T04:50:03.574Z,1013.02
2018-08-22T04:51:03.567Z,1012.98
2018-08-22T04:52:03.609Z,1013.00
2018-08-22T04:53:03.566Z,1012.97
2018-08-22T04:54:03.562Z,1012.89
2018-08-22T04:55:03.568Z,1012.91
2018-08-22T04:56:03.563Z,1012.95
2018-08-22T04:57:03.557Z,1012.97
2018-08-22T04:58:03.555Z,1012.97
2018-08-22T04:59:03.559Z,1012.94
2018-08-22T05:00:03.557Z,1012.94
2018-08-22T05:01:03.553Z,1012.93
2018-08-22T05:02:03.552Z,1012.95
2018-08-22T05:03:03.549Z,1012.96
2018-08-22T05:04:03.544Z,1012.98
2018-08-22T05:05:03.553Z,1012.99
2018-08-22T05:06:03.591Z,1013.01
2018-08-22T05:07:03.544Z,1013.07
2018-08-22T05:08:03.542Z,1013.05
2018-08-22T05:09:03.542Z,1013.10
2018-08-22T05:10:03.540Z,1013.08
2018-08-22T05:11:03.535Z,1013.12
2018-08-22T05:12:03.532Z,1013.14
2018-08-22T05:13:03.536Z,1013.15
2018-08-22T05:14:03.535Z,1013.16
2018-08-22T05:15:03.530Z,1013.23
2018-08-22T05:16:03.527Z,1013.17
2018-08-22T05:17:03.529Z,1013.19
2018-08-22T05:18:03.526Z,1013.19
2018-08-22T05:19:03.529Z,1013.28
2018-08-22T05:20:03.528Z,1013.31
2018-08-22T05:21:03.522Z,1013.36
2018-08-22T05:22:03.523Z,1013.38
2018-08-22T05:23:03.526Z,1013.37
2018-08-22T05:24:03.525Z,1013.35
2018-08-22T05:25:03.529Z,1013.43
2018-08-22T05:26:03.524Z,1013.39
2018-08-22T05:27:03.520Z,1013.46
2018-08-22T05:28:03.523Z,1013.50
2018-08-22T05:29:03.524Z,1013.45
2018-08-22T05:30:03.529Z,1013.49
2018-08-22T05:31:03.522Z,1013.47
2018-08-22T05:32:03.522Z,1013.49
2018-08-22T05:33:03.523Z,1013.55
2018-08-22T05:34:03.523Z,1013.55
2018-08-22T05:35:03.529Z,1013.57
2018-08-22T05:36:03.530Z,1013.58
2018-08-22T05:37:03.530Z,1013.57
2018-08-22T05:38:03.533Z,1013.58
2018-08-22T05:39:03.528Z,1013.66
2018-08-22T05:40:03.529Z,1013.54
2018-08-22T05:41:03.534Z,1013.46
2018-08-22T05:42:03.535Z,1013.61
2018-08-22T05:43:03.539Z,1013.61
2018-08-22T05:44:03.540Z,1013.61
2018-08-22T05:45:03.538Z,1013.67
2018-08-22T05:46:03.541Z,1013.69
2018-08-22T05:47:03.547Z,1013.71
2018-08-22T05:48:03.549Z,1013.69
2018-08-22T05:49:03.570Z,1013.75
2018-08-22T05:50:03.554Z,1013.73
2018-08-22T05:51:03.554Z,1013.76
2018-08-22T05:52:03.556Z,1013.85
2018-08-22T05:53:03.558Z,1013.83
2018-08-22T05:54:03.562Z,1013.86
2018-08-22T05:55:03.569Z,1013.89
2018-08-22T05:56:03.573Z,1013.91
2018-08-22T05:57:03.574Z,1013.96
2018-08-22T05:58:03.578Z,1013.88
2018-08-22T05:59:03.577Z,1013.90
2018-08-22T06:00:03.582Z,1013.92
2018-08-22T06:01:03.589Z,1013.98
2018-08-22T06:02:03.593Z,1013.96
2018-08-22T06:03:03.595Z,1014.04
2018-08-22T06:04:03.596Z,1014.04
2018-08-22T06:05:03.604Z,1014.07
2018-08-22T06:06:03.604Z,1014.12
2018-08-22T06:07:03.615Z,1014.09
2018-08-22T06:08:03.619Z,1014.07
2018-08-22T06:09:03.653Z,1014.08
2018-08-22T06:10:03.628Z,1014.06
2018-08-22T06:11:03.629Z,1014.06
2018-08-22T06:12:03.633Z,1014.10
2018-08-22T06:13:03.637Z,1014.13
2018-08-22T06:14:03.644Z,1014.12
2018-08-22T06:15:03.654Z,1014.14
2018-08-22T06:16:03.658Z,1014.22
2018-08-22T06:17:03.658Z,1014.12
2018-08-22T06:18:03.664Z,1014.14
2018-08-22T06:19:03.674Z,1014.20
2018-08-22T06:20:03.680Z,1014.22
2018-08-22T06:21:03.690Z,1014.21
2018-08-22T06:22:03.693Z,1014.21
2018-08-22T06:23:03.693Z,1014.28
2018-08-22T06:24:03.698Z,1014.29
2018-08-22T06:25:03.705Z,1014.28
2018-08-22T06:26:03.713Z,1014.26
2018-08-22T06:27:03.750Z,1014.30
2018-08-22T06:28:03.728Z,1014.33
2018-08-22T06:29:03.736Z,1014.36
2018-08-22T06:30:03.744Z,1014.40
2018-08-22T06:31:03.746Z,1014.39
2018-08-22T06:32:03.751Z,1014.47
2018-08-22T06:33:03.776Z,1014.41
2018-08-22T06:34:03.771Z,1014.45
2018-08-22T06:35:03.778Z,1014.46
2018-08-22T06:36:03.782Z,1014.54
2018-08-22T06:37:03.788Z,1014.48
2018-08-22T06:38:03.796Z,1014.53
2018-08-22T06:39:03.810Z,1014.54
2018-08-22T06:40:03.816Z,1014.55
2018-08-22T06:41:03.826Z,1014.55
2018-08-22T06:42:03.833Z,1014.54
2018-08-22T06:43:03.839Z,1014.53
2018-08-22T06:44:03.874Z,1014.56
2018-08-22T06:45:03.856Z,1014.52
2018-08-22T06:46:03.866Z,1014.53
2018-08-22T06:47:03.879Z,1014.61
2018-08-22T06:48:03.889Z,1014.52
2018-08-22T06:49:03.892Z,1014.42
2018-08-22T06:50:03.903Z,1014.61
2018-08-22T06:51:03.917Z,1014.56
2018-08-22T06:52:03.925Z,1014.61
2018-08-22T06:53:03.934Z,1014.54
2018-08-22T06:54:03.944Z,1014.58
2018-08-22T06:55:03.957Z,1014.69
2018-08-22T06:56:03.963Z,1014.70
2018-08-22T06:57:03.999Z,1014.73
2018-08-22T06:58:03.984Z,1014.71
2018-08-22T06:59:03.995Z,1014.65
2018-08-22T07:00:04.005Z,1014.70
2018-08-22T07:01:04.018Z,1014.77
2018-08-22T07:02:04.028Z,1014.75
2018-08-22T07:03:04.034Z,1014.76
2018-08-22T07:04:04.045Z,1014.78
2018-08-22T07:05:04.060Z,1014.78
2018-08-22T07:06:04.070Z,1014.71
2018-08-22T07:07:04.078Z,1014.69
2018-08-22T07:08:04.128Z,1014.76
2018-08-22T07:09:04.098Z,1014.70
2018-08-22T07:10:04.110Z,1014.62
2018-08-22T07:11:04.126Z,1014.63
2018-08-22T07:12:04.136Z,1014.59
2018-08-22T07:13:04.147Z,1014.69
2018-08-22T07:14:04.177Z,1014.63
2018-08-22T07:15:04.166Z,1014.60
2018-08-22T07:16:04.178Z,1014.69
2018-08-22T07:17:04.188Z,1014.77
2018-08-22T07:18:04.201Z,1014.80
2018-08-22T07:19:04.217Z,1014.83
2018-08-22T07:20:04.238Z,1014.76
2018-08-22T07:21:04.319Z,1014.52
2018-08-22T07:22:04.251Z,1014.80
2018-08-22T07:23:04.263Z,1014.78
2018-08-22T07:24:04.273Z,1014.82
2018-08-22T07:25:04.284Z,1014.64
2018-08-22T07:26:04.296Z,1014.58
2018-08-22T07:27:04.304Z,1014.71
2018-08-22T07:28:04.314Z,1014.78
2018-08-22T07:29:04.326Z,1014.70
2018-08-22T07:30:04.369Z,1014.77
2018-08-22T07:31:04.356Z,1014.67
2018-08-22T07:32:04.367Z,1014.72
2018-08-22T07:33:04.378Z,1014.78
2018-08-22T07:34:04.391Z,1014.85
2018-08-22T07:35:04.399Z,1014.81
2018-08-22T07:36:04.410Z,1014.78
2018-08-22T07:37:04.429Z,1014.73
2018-08-22T07:38:04.444Z,1014.73
2018-08-22T07:39:04.448Z,1014.77
2018-08-22T07:40:04.459Z,1014.81
2018-08-22T07:41:04.475Z,1014.65
2018-08-22T07:42:04.491Z,1013.92
2018-08-22T07:43:04.500Z,1013.88
2018-08-22T07:44:04.514Z,1013.92
2018-08-22T07:45:04.530Z,1013.93
2018-08-22T07:46:04.544Z,1013.92
2018-08-22T07:47:04.566Z,1013.93
2018-08-22T07:48:04.558Z,1013.94
2018-08-22T07:49:04.570Z,1013.95
2018-08-22T07:50:04.631Z,1014.03
2018-08-22T07:51:04.600Z,1014.00
2018-08-22T07:52:04.612Z,1013.91
2018-08-22T07:53:04.619Z,1013.91
2018-08-22T07:54:04.632Z,1013.91
2018-08-22T07:55:04.649Z,1013.89
2018-08-22T07:56:04.703Z,1013.85
2018-08-22T07:57:04.675Z,1013.85
2018-08-22T07:58:04.687Z,1013.85
2018-08-22T07:59:04.694Z,1013.85
2018-08-22T08:00:04.766Z,1013.79
2018-08-22T08:01:04.722Z,1013.79
2018-08-22T08:02:04.733Z,1013.86
2018-08-22T08:03:04.751Z,1013.95
2018-08-22T08:04:04.762Z,1013.91
2018-08-22T08:05:04.773Z,1013.88
2018-08-22T08:06:04.788Z,1013.93
2018-08-22T08:07:04.800Z,1013.97
2018-08-22T08:08:04.807Z,1013.93
2018-08-22T08:09:04.826Z,1013.93
2018-08-22T08:10:04.838Z,1013.91
2018-08-22T08:11:04.968Z,1013.96
2018-08-22T08:12:04.857Z,1013.90
2018-08-22T08:13:04.870Z,1013.94
2018-08-22T08:14:04.883Z,1013.91
2018-08-22T08:15:04.954Z,1013.90
2018-08-22T08:16:04.920Z,1013.91
2018-08-22T08:17:04.970Z,1013.94
2018-08-22T08:18:04.942Z,1013.94
2018-08-22T08:19:04.948Z,1013.89
2018-08-22T08:20:04.982Z,1013.89
2018-08-22T08:21:04.978Z,1013.92
2018-08-22T08:22:04.986Z,1013.96
2018-08-22T08:23:05.005Z,1014.03
2018-08-22T08:24:05.016Z,1013.95
2018-08-22T08:25:05.024Z,1013.98
2018-08-22T08:26:05.041Z,1014.00
2018-08-22T08:27:05.059Z,1013.98
2018-08-22T08:28:05.069Z,1014.02
2018-08-22T08:29:05.083Z,1014.00
2018-08-22T08:30:05.098Z,1013.98
2018-08-22T08:31:05.105Z,1013.96
2018-08-22T08:32:05.117Z,1013.91
2018-08-22T08:33:05.132Z,1013.95
2018-08-22T08:34:05.145Z,1013.90
2018-08-22T08:35:05.165Z,1013.87
2018-08-22T08:36:05.188Z,1013.91
2018-08-22T08:37:05.190Z,1013.94
2018-08-22T08:38:05.205Z,1013.93
2018-08-22T08:39:05.213Z,1013.90
2018-08-22T08:40:05.226Z,1013.94
2018-08-22T08:41:05.281Z,1013.99
2018-08-22T08:42:05.258Z,1013.96
2018-08-22T08:43:05.272Z,1013.98
2018-08-22T08:44:05.281Z,1013.97
2018-08-22T08:45:05.294Z,1013.97
2018-08-22T08:46:05.308Z,1013.93
2018-08-22T08:47:05.326Z,1013.98
2018-08-22T08:48:05.372Z,1013.97
2018-08-22T08:49:05.355Z,1013.95
2018-08-22T08:50:05.371Z,1013.94
2018-08-22T08:51:05.384Z,1013.93
2018-08-22T08:52:05.397Z,1013.91
2018-08-22T08:53:05.407Z,1013.89
2018-08-22T08:54:05.422Z,1013.87
2018-08-22T08:55:05.442Z,1013.90
2018-08-22T08:56:05.481Z,1013.86
2018-08-22T08:57:05.594Z,1013.86
2018-08-22T08:58:05.480Z,1013.87
2018-08-22T08:59:05.500Z,1013.86
2018-08-22T09:00:05.515Z,1013.90
2018-08-22T09:01:05.529Z,1013.89
2018-08-22T09:02:05.543Z,1013.81
2018-08-22T09:03:05.556Z,1013.79
2018-08-22T09:04:05.573Z,1013.77
2018-08-22T09:05:05.585Z,1013.72
2018-08-22T09:06:05.599Z,1013.76
2018-08-22T09:07:05.618Z,1013.79
2018-08-22T09:08:05.632Z,1013.72
2018-08-22T09:09:05.649Z,1013.82
2018-08-22T09:10:05.663Z,1013.75
2018-08-22T09:11:05.673Z,1013.80
2018-08-22T09:12:05.715Z,1013.83
2018-08-22T09:13:05.708Z,1013.88
2018-08-22T09:14:05.722Z,1013.88
2018-08-22T09:15:05.734Z,1013.85
2018-08-22T09:16:05.749Z,1013.83
2018-08-22T09:17:05.763Z,1013.79
2018-08-22T09:18:05.779Z,1013.83
2018-08-22T09:19:05.797Z,1013.83
2018-08-22T09:20:05.813Z,1013.84
2018-08-22T09:21:05.882Z,1013.85
2018-08-22T09:22:05.845Z,1013.80
2018-08-22T09:23:05.856Z,1013.78
2018-08-22T09:24:05.883Z,1013.72
2018-08-22T09:25:05.887Z,1013.73
2018-08-22T09:26:05.911Z,1013.74
2018-08-22T09:27:05.927Z,1013.71
2018-08-22T09:28:05.981Z,1013.73
2018-08-22T09:29:05.955Z,1013.71
2018-08-22T09:30:05.971Z,1013.70
2018-08-22T09:31:05.993Z,1013.69
2018-08-22T09:32:06.006Z,1013.68
2018-08-22T09:33:06.022Z,1013.71
2018-08-22T09:34:06.038Z,1013.65
2018-08-22T09:35:06.051Z,1013.64
2018-08-22T09:36:06.066Z,1013.61
2018-08-22T09:37:06.086Z,1013.55
2018-08-22T09:38:06.099Z,1013.59
2018-08-22T09:39:06.121Z,1013.58
2018-08-22T09:40:06.170Z,1013.56
2018-08-22T09:41:06.154Z,1013.59
2018-08-22T09:42:06.170Z,1013.62
2018-08-22T09:43:06.200Z,1013.60
2018-08-22T09:44:06.197Z,1013.59
2018-08-22T09:45:06.237Z,1013.57
2018-08-22T09:46:06.233Z,1013.52
2018-08-22T09:47:06.245Z,1013.49
2018-08-22T09:48:06.261Z,1013.48
2018-08-22T09:49:06.276Z,1013.45
2018-08-22T09:50:06.296Z,1013.44
2018-08-22T09:51:06.368Z,1013.49
2018-08-22T09:52:06.328Z,1013.50
2018-08-22T09:53:06.344Z,1013.54
2018-08-22T09:54:06.361Z,1013.53
2018-08-22T09:55:06.375Z,1013.50
2018-08-22T09:56:06.387Z,1013.44
2018-08-22T09:57:06.404Z,1013.44
2018-08-22T09:58:06.438Z,1013.46
2018-08-22T09:59:06.440Z,1013.39
2018-08-22T10:00:06.467Z,1013.44
2018-08-22T10:01:06.468Z,1013.43
2018-08-22T10:02:06.484Z,1013.42
2018-08-22T10:03:06.505Z,1013.43
2018-08-22T10:04:06.521Z,1013.42
2018-08-22T10:05:06.538Z,1013.35
2018-08-22T10:06:06.553Z,1013.39
2018-08-22T10:07:06.594Z,1013.39
2018-08-22T10:08:06.582Z,1013.39
2018-08-22T10:09:06.600Z,1013.38
2018-08-22T10:10:06.617Z,1013.41
2018-08-22T10:11:06.639Z,1013.43
2018-08-22T10:12:06.657Z,1013.38
2018-08-22T10:13:06.673Z,1013.49
2018-08-22T10:14:06.690Z,1013.48
2018-08-22T10:15:06.710Z,1013.47
2018-08-22T10:16:06.718Z,1013.44
2018-08-22T10:17:06.782Z,1013.48
2018-08-22T10:18:06.758Z,1013.44
2018-08-22T10:19:06.773Z,1013.49
2018-08-22T10:20:06.787Z,1013.43
2018-08-22T10:21:06.804Z,1013.39
2018-08-22T10:22:06.821Z,1013.39
2018-08-22T10:23:06.843Z,1013.39
2018-08-22T10:24:06.859Z,1013.38
2018-08-22T10:25:06.876Z,1013.35
2018-08-22T10:26:06.895Z,1013.37
2018-08-22T10:27:06.967Z,1013.32
2018-08-22T10:28:06.927Z,1013.32
2018-08-22T10:29:06.939Z,1013.33
2018-08-22T10:30:06.957Z,1013.33
2018-08-22T10:31:06.980Z,1013.32
2018-08-22T10:32:06.995Z,1013.32
2018-08-22T10:33:07.091Z,1013.29
2018-08-22T10:34:07.025Z,1013.29
2018-08-22T10:35:07.051Z,1013.33
2018-08-22T10:36:07.065Z,1013.30
2018-08-22T10:37:07.081Z,1013.27
2018-08-22T10:38:07.099Z,1013.31
2018-08-22T10:39:07.112Z,1013.29
2018-08-22T10:40:07.129Z,1013.22
2018-08-22T10:41:07.146Z,1013.18
2018-08-22T10:42:07.165Z,1013.19
2018-08-22T10:43:07.190Z,1013.19
2018-08-22T10:44:07.204Z,1013.24
2018-08-22T10:45:07.220Z,1013.23
2018-08-22T10:46:07.238Z,1013.23
2018-08-22T10:47:07.252Z,1013.24
2018-08-22T10:48:07.291Z,1013.25
2018-08-22T10:49:07.289Z,1013.25
2018-08-22T10:50:07.307Z,1013.21
2018-08-22T10:51:07.322Z,1013.20
2018-08-22T10:52:07.338Z,1013.17
2018-08-22T10:53:07.354Z,1013.18
2018-08-22T10:54:07.373Z,1013.17
2018-08-22T10:55:07.394Z,1013.18
2018-08-22T10:56:07.412Z,1013.15
2018-08-22T10:57:07.428Z,1013.15
2018-08-22T10:58:07.447Z,1013.18
2018-08-22T10:59:07.463Z,1013.19
2018-08-22T11:00:07.477Z,1013.18
2018-08-22T11:01:07.494Z,1013.14
2018-08-22T11:02:07.512Z,1013.18
2018-08-22T11:03:07.533Z,1013.13
2018-08-22T11:04:07.550Z,1013.10
2018-08-22T11:05:07.563Z,1013.12
2018-08-22T11:06:07.581Z,1013.14
2018-08-22T11:07:07.605Z,1013.09
2018-08-22T11:08:07.620Z,1012.99
2018-08-22T11:09:07.638Z,1013.01
2018-08-22T11:10:07.657Z,1013.01
2018-08-22T11:11:07.666Z,1012.99
2018-08-22T11:12:07.684Z,1013.00
2018-08-22T11:13:07.699Z,1012.99
2018-08-22T11:14:07.716Z,1013.01
2018-08-22T11:15:07.741Z,1012.99
2018-08-22T11:16:07.832Z,1012.98
2018-08-22T11:17:07.770Z,1012.98
2018-08-22T11:18:07.818Z,1012.94
2018-08-22T11:19:07.800Z,1012.93
2018-08-22T11:20:07.819Z,1012.92
2018-08-22T11:21:07.837Z,1012.81
2018-08-22T11:22:07.852Z,1012.81
2018-08-22T11:23:07.865Z,1012.77
2018-08-22T11:24:07.880Z,1012.71
2018-08-22T11:25:07.896Z,1012.67
2018-08-22T11:26:07.912Z,1012.59
2018-08-22T11:27:07.933Z,1012.59
2018-08-22T11:28:07.948Z,1012.58
2018-08-22T11:29:07.964Z,1012.60
2018-08-22T11:30:07.980Z,1012.55
2018-08-22T11:31:07.990Z,1012.54
2018-08-22T11:32:08.003Z,1012.56
2018-08-22T11:33:08.017Z,1012.56
2018-08-22T11:34:08.031Z,1012.55
2018-08-22T11:35:08.050Z,1012.56
2018-08-22T11:36:08.062Z,1012.57
2018-08-22T11:37:08.076Z,1012.57
2018-08-22T11:38:08.085Z,1012.54
2018-08-22T11:39:08.101Z,1012.50
2018-08-22T11:40:08.114Z,1012.53
2018-08-22T11:41:08.128Z,1012.52
2018-08-22T11:42:08.140Z,1012.49
2018-08-22T11:43:08.146Z,1012.53
2018-08-22T11:44:08.159Z,1012.50
2018-08-22T11:45:08.170Z,1012.50
2018-08-22T11:46:08.182Z,1012.51
2018-08-22T11:47:08.195Z,1012.46
2018-08-22T11:48:08.205Z,1012.44
2018-08-22T11:49:08.217Z,1012.44
2018-08-22T11:50:08.234Z,1012.47
2018-08-22T11:51:08.233Z,1012.41
2018-08-22T11:52:08.241Z,1012.41
2018-08-22T11:53:08.256Z,1012.38
2018-08-22T11:54:08.267Z,1012.40
2018-08-22T11:55:08.270Z,1012.38
2018-08-22T11:56:08.310Z,1012.33
2018-08-22T11:57:08.289Z,1012.32
2018-08-22T11:58:08.297Z,1012.32
2018-08-22T11:59:08.310Z,1012.33
2018-08-22T12:00:08.319Z,1012.27
2018-08-22T12:01:08.328Z,1012.23
2018-08-22T12:02:08.338Z,1012.20
2018-08-22T12:03:08.342Z,1012.21
2018-08-22T12:04:08.349Z,1012.18
2018-08-22T12:05:08.357Z,1012.16